sensor_id;sensor_type;location;lat;lon;timestamp;temperature;humidity
42099;DHT22;27758;55.900;8.516;2023-04-03T00:00:44;-1.10;99.90
42099;DHT22;27758;55.900;8.516;2023-04-03T00:03:10;-1.10;99.90
42099;DHT22;27758;55.900;8.516;2023-04-03T00:05:36;-1.20;99.90
42099;DHT22;27758;55.900;8.516;2023-04-03T00:08:02;-1.20;99.90
42099;DHT22;27758;55.900;8.516;2023-04-03T00:10:28;-1.20;99.90
42099;DHT22;27758;55.900;8.516;2023-04-03T00:12:54;-1.10;99.90
42099;DHT22;27758;55.900;8.516;2023-04-03T00:15:20;-1.10;99.90
42099;DHT22;27758;55.900;8.516;2023-04-03T00:17:45;-1.00;99.90
42099;DHT22;27758;55.900;8.516;2023-04-03T00:20:11;-1.10;99.90
42099;DHT22;27758;55.900;8.516;2023-04-03T00:22:37;-1.00;99.90
42099;DHT22;27758;55.900;8.516;2023-04-03T00:25:03;-1.10;99.90
42099;DHT22;27758;55.900;8.516;2023-04-03T00:27:29;-1.10;99.90
42099;DHT22;27758;55.900;8.516;2023-04-03T00:29:55;-1.20;99.90
42099;DHT22;27758;55.900;8.516;2023-04-03T00:32:20;-1.20;99.90
42099;DHT22;27758;55.900;8.516;2023-04-03T00:34:46;-1.30;99.90
42099;DHT22;27758;55.900;8.516;2023-04-03T00:37:11;-1.20;99.90
42099;DHT22;27758;55.900;8.516;2023-04-03T00:39:37;-1.20;99.90
42099;DHT22;27758;55.900;8.516;2023-04-03T00:42:03;-1.20;99.90
42099;DHT22;27758;55.900;8.516;2023-04-03T00:47:01;-1.20;99.90
42099;DHT22;27758;55.900;8.516;2023-04-03T00:49:27;-1.20;99.90
42099;DHT22;27758;55.900;8.516;2023-04-03T00:51:53;-1.30;99.90
42099;DHT22;27758;55.900;8.516;2023-04-03T00:54:20;-1.30;99.90
42099;DHT22;27758;55.900;8.516;2023-04-03T00:56:46;-1.40;99.90
42099;DHT22;27758;55.900;8.516;2023-04-03T00:59:15;-1.40;99.90
42099;DHT22;27758;55.900;8.516;2023-04-03T01:01:42;-1.40;99.90
42099;DHT22;27758;55.900;8.516;2023-04-03T01:04:45;-1.40;99.90
42099;DHT22;27758;55.900;8.516;2023-04-03T01:07:16;-1.40;99.90
42099;DHT22;27758;55.900;8.516;2023-04-03T01:09:43;-1.40;99.90
42099;DHT22;27758;55.900;8.516;2023-04-03T01:12:22;-1.40;99.90
42099;DHT22;27758;55.900;8.516;2023-04-03T01:14:50;-1.50;99.90
42099;DHT22;27758;55.900;8.516;2023-04-03T01:25:24;-1.60;99.90
42099;DHT22;27758;55.900;8.516;2023-04-03T01:27:50;-1.60;99.90
42099;DHT22;27758;55.900;8.516;2023-04-03T01:30:19;-1.70;99.90
42099;DHT22;27758;55.900;8.516;2023-04-03T01:32:45;-1.80;99.90
42099;DHT22;27758;55.900;8.516;2023-04-03T01:35:11;-1.80;99.90
42099;DHT22;27758;55.900;8.516;2023-04-03T01:37:37;-1.90;99.90
42099;DHT22;27758;55.900;8.516;2023-04-03T01:40:03;-1.90;99.90
42099;DHT22;27758;55.900;8.516;2023-04-03T01:42:29;-2.00;99.90
42099;DHT22;27758;55.900;8.516;2023-04-03T01:44:55;-2.00;99.90
42099;DHT22;27758;55.900;8.516;2023-04-03T01:47:21;-2.00;99.90
42099;DHT22;27758;55.900;8.516;2023-04-03T01:49:47;-2.00;99.90
42099;DHT22;27758;55.900;8.516;2023-04-03T01:52:13;-1.90;99.90
42099;DHT22;27758;55.900;8.516;2023-04-03T01:54:39;-1.90;99.90
42099;DHT22;27758;55.900;8.516;2023-04-03T01:57:04;-1.80;99.90
42099;DHT22;27758;55.900;8.516;2023-04-03T01:59:30;-1.80;99.90
42099;DHT22;27758;55.900;8.516;2023-04-03T02:01:56;-1.90;99.90
42099;DHT22;27758;55.900;8.516;2023-04-03T02:04:21;-2.00;99.90
42099;DHT22;27758;55.900;8.516;2023-04-03T02:06:47;-2.00;99.90
42099;DHT22;27758;55.900;8.516;2023-04-03T02:09:13;-2.10;99.90
42099;DHT22;27758;55.900;8.516;2023-04-03T02:11:39;-2.10;99.90
42099;DHT22;27758;55.900;8.516;2023-04-03T02:14:04;-2.00;99.90
42099;DHT22;27758;55.900;8.516;2023-04-03T02:16:30;-1.90;99.90
42099;DHT22;27758;55.900;8.516;2023-04-03T02:18:56;-1.90;99.90
42099;DHT22;27758;55.900;8.516;2023-04-03T02:21:22;-2.00;99.90
42099;DHT22;27758;55.900;8.516;2023-04-03T02:23:48;-2.10;99.90
42099;DHT22;27758;55.900;8.516;2023-04-03T02:26:15;-2.20;99.90
42099;DHT22;27758;55.900;8.516;2023-04-03T02:28:41;-2.20;99.90
42099;DHT22;27758;55.900;8.516;2023-04-03T02:31:08;-2.20;99.90
42099;DHT22;27758;55.900;8.516;2023-04-03T02:33:35;-2.10;99.90
42099;DHT22;27758;55.900;8.516;2023-04-03T02:36:03;-2.20;99.90
42099;DHT22;27758;55.900;8.516;2023-04-03T02:38:29;-2.20;99.90
42099;DHT22;27758;55.900;8.516;2023-04-03T02:41:09;-2.30;99.90
42099;DHT22;27758;55.900;8.516;2023-04-03T02:43:36;-2.30;99.90
42099;DHT22;27758;55.900;8.516;2023-04-03T02:46:02;-2.20;99.90
42099;DHT22;27758;55.900;8.516;2023-04-03T02:48:28;-2.30;99.90
42099;DHT22;27758;55.900;8.516;2023-04-03T02:50:54;-2.30;99.90
42099;DHT22;27758;55.900;8.516;2023-04-03T02:53:20;-2.30;99.90
42099;DHT22;27758;55.900;8.516;2023-04-03T02:55:46;-2.30;99.90
42099;DHT22;27758;55.900;8.516;2023-04-03T02:58:12;-2.30;99.90
42099;DHT22;27758;55.900;8.516;2023-04-03T03:00:38;-2.30;99.90
42099;DHT22;27758;55.900;8.516;2023-04-03T03:03:04;-2.40;99.90
42099;DHT22;27758;55.900;8.516;2023-04-03T03:05:30;-2.40;99.90
42099;DHT22;27758;55.900;8.516;2023-04-03T03:07:56;-2.50;99.90
42099;DHT22;27758;55.900;8.516;2023-04-03T03:10:22;-2.60;99.90
42099;DHT22;27758;55.900;8.516;2023-04-03T03:12:48;-2.50;99.90
42099;DHT22;27758;55.900;8.516;2023-04-03T03:15:14;-2.50;99.90
42099;DHT22;27758;55.900;8.516;2023-04-03T03:17:41;-2.50;99.90
42099;DHT22;27758;55.900;8.516;2023-04-03T03:20:08;-2.40;99.90
42099;DHT22;27758;55.900;8.516;2023-04-03T03:22:34;-2.50;99.90
42099;DHT22;27758;55.900;8.516;2023-04-03T03:25:00;-2.50;99.90
42099;DHT22;27758;55.900;8.516;2023-04-03T03:27:27;-2.50;99.90
42099;DHT22;27758;55.900;8.516;2023-04-03T03:29:56;-2.60;99.90
42099;DHT22;27758;55.900;8.516;2023-04-03T03:32:21;-2.60;99.90
42099;DHT22;27758;55.900;8.516;2023-04-03T03:34:47;-2.70;99.90
42099;DHT22;27758;55.900;8.516;2023-04-03T03:37:13;-2.70;99.90
42099;DHT22;27758;55.900;8.516;2023-04-03T03:39:38;-2.70;99.90
42099;DHT22;27758;55.900;8.516;2023-04-03T03:42:04;-2.80;99.90
42099;DHT22;27758;55.900;8.516;2023-04-03T03:44:30;-2.70;99.90
42099;DHT22;27758;55.900;8.516;2023-04-03T03:46:56;-2.70;99.90
42099;DHT22;27758;55.900;8.516;2023-04-03T03:49:22;-2.80;99.90
42099;DHT22;27758;55.900;8.516;2023-04-03T03:51:47;-2.80;99.90
42099;DHT22;27758;55.900;8.516;2023-04-03T03:54:13;-2.80;99.90
42099;DHT22;27758;55.900;8.516;2023-04-03T03:56:39;-2.90;99.90
42099;DHT22;27758;55.900;8.516;2023-04-03T03:59:05;-2.90;99.90
42099;DHT22;27758;55.900;8.516;2023-04-03T04:01:31;-3.00;99.90
42099;DHT22;27758;55.900;8.516;2023-04-03T04:03:57;-3.00;99.90
42099;DHT22;27758;55.900;8.516;2023-04-03T04:06:23;-3.00;99.90
42099;DHT22;27758;55.900;8.516;2023-04-03T04:08:48;-3.10;99.90
42099;DHT22;27758;55.900;8.516;2023-04-03T04:11:14;-3.10;99.90
42099;DHT22;27758;55.900;8.516;2023-04-03T04:13:40;-3.10;99.90
42099;DHT22;27758;55.900;8.516;2023-04-03T04:16:06;-3.10;99.90
42099;DHT22;27758;55.900;8.516;2023-04-03T04:18:32;-3.20;99.90
42099;DHT22;27758;55.900;8.516;2023-04-03T04:20:58;-3.20;99.90
42099;DHT22;27758;55.900;8.516;2023-04-03T04:23:24;-3.30;99.90
42099;DHT22;27758;55.900;8.516;2023-04-03T04:25:50;-3.30;99.90
42099;DHT22;27758;55.900;8.516;2023-04-03T04:28:17;-3.20;99.90
42099;DHT22;27758;55.900;8.516;2023-04-03T04:30:43;-3.20;99.90
42099;DHT22;27758;55.900;8.516;2023-04-03T04:33:09;-3.20;99.90
42099;DHT22;27758;55.900;8.516;2023-04-03T04:35:35;-3.20;99.90
42099;DHT22;27758;55.900;8.516;2023-04-03T04:38:00;-3.10;99.90
42099;DHT22;27758;55.900;8.516;2023-04-03T04:40:27;-3.00;99.90
42099;DHT22;27758;55.900;8.516;2023-04-03T04:42:53;-2.90;99.90
42099;DHT22;27758;55.900;8.516;2023-04-03T04:45:19;-2.90;99.90
42099;DHT22;27758;55.900;8.516;2023-04-03T04:47:45;-2.80;99.90
42099;DHT22;27758;55.900;8.516;2023-04-03T04:50:11;-2.90;99.90
42099;DHT22;27758;55.900;8.516;2023-04-03T04:52:37;-3.00;99.90
42099;DHT22;27758;55.900;8.516;2023-04-03T04:55:03;-3.00;99.90
42099;DHT22;27758;55.900;8.516;2023-04-03T04:57:29;-3.10;99.90
42099;DHT22;27758;55.900;8.516;2023-04-03T04:59:55;-3.10;99.90
42099;DHT22;27758;55.900;8.516;2023-04-03T05:02:21;-3.20;99.90
42099;DHT22;27758;55.900;8.516;2023-04-03T05:04:46;-3.10;99.90
42099;DHT22;27758;55.900;8.516;2023-04-03T05:07:12;-3.10;99.90
42099;DHT22;27758;55.900;8.516;2023-04-03T05:09:38;-3.10;99.90
42099;DHT22;27758;55.900;8.516;2023-04-03T05:12:04;-3.00;99.90
42099;DHT22;27758;55.900;8.516;2023-04-03T05:14:30;-3.00;99.90
42099;DHT22;27758;55.900;8.516;2023-04-03T05:16:55;-2.90;99.90
42099;DHT22;27758;55.900;8.516;2023-04-03T05:19:21;-2.80;99.90
42099;DHT22;27758;55.900;8.516;2023-04-03T05:21:48;-2.70;99.90
42099;DHT22;27758;55.900;8.516;2023-04-03T05:24:16;-2.50;99.90
42099;DHT22;27758;55.900;8.516;2023-04-03T05:26:42;-2.40;99.90
42099;DHT22;27758;55.900;8.516;2023-04-03T05:29:08;-2.30;99.90
42099;DHT22;27758;55.900;8.516;2023-04-03T05:31:34;-2.20;99.90
42099;DHT22;27758;55.900;8.516;2023-04-03T05:34:00;-2.10;99.90
42099;DHT22;27758;55.900;8.516;2023-04-03T05:36:26;-2.10;99.90
42099;DHT22;27758;55.900;8.516;2023-04-03T05:38:52;-2.00;99.90
42099;DHT22;27758;55.900;8.516;2023-04-03T05:41:18;-2.00;99.90
42099;DHT22;27758;55.900;8.516;2023-04-03T05:43:43;-2.00;99.90
42099;DHT22;27758;55.900;8.516;2023-04-03T05:46:14;-2.10;99.90
42099;DHT22;27758;55.900;8.516;2023-04-03T05:48:41;-2.00;99.90
42099;DHT22;27758;55.900;8.516;2023-04-03T05:51:09;-1.80;99.90
42099;DHT22;27758;55.900;8.516;2023-04-03T05:53:39;-1.70;99.90
42099;DHT22;27758;55.900;8.516;2023-04-03T05:56:04;-1.50;99.90
42099;DHT22;27758;55.900;8.516;2023-04-03T05:58:30;-1.40;99.90
42099;DHT22;27758;55.900;8.516;2023-04-03T06:00:56;-1.20;99.90
42099;DHT22;27758;55.900;8.516;2023-04-03T06:03:22;-1.10;99.90
42099;DHT22;27758;55.900;8.516;2023-04-03T06:05:48;-1.00;99.90
42099;DHT22;27758;55.900;8.516;2023-04-03T06:08:14;-0.80;99.90
42099;DHT22;27758;55.900;8.516;2023-04-03T06:10:40;-0.60;99.90
42099;DHT22;27758;55.900;8.516;2023-04-03T06:13:06;-0.40;99.90
42099;DHT22;27758;55.900;8.516;2023-04-03T06:15:32;-0.30;99.90
42099;DHT22;27758;55.900;8.516;2023-04-03T06:17:59;-0.10;99.90
42099;DHT22;27758;55.900;8.516;2023-04-03T06:20:25;0.00;99.90
42099;DHT22;27758;55.900;8.516;2023-04-03T06:22:51;0.20;99.90
42099;DHT22;27758;55.900;8.516;2023-04-03T06:25:17;0.40;99.90
42099;DHT22;27758;55.900;8.516;2023-04-03T06:27:44;0.50;99.90
42099;DHT22;27758;55.900;8.516;2023-04-03T06:30:11;0.80;99.90
42099;DHT22;27758;55.900;8.516;2023-04-03T06:32:37;1.00;99.90
42099;DHT22;27758;55.900;8.516;2023-04-03T06:35:04;1.10;99.90
42099;DHT22;27758;55.900;8.516;2023-04-03T06:37:30;1.30;99.90
42099;DHT22;27758;55.900;8.516;2023-04-03T06:39:56;1.50;99.90
42099;DHT22;27758;55.900;8.516;2023-04-03T06:42:22;1.70;99.90
42099;DHT22;27758;55.900;8.516;2023-04-03T06:44:48;1.90;99.90
42099;DHT22;27758;55.900;8.516;2023-04-03T06:47:15;2.00;99.90
42099;DHT22;27758;55.900;8.516;2023-04-03T06:49:42;2.30;99.90
42099;DHT22;27758;55.900;8.516;2023-04-03T06:52:08;2.50;99.90
42099;DHT22;27758;55.900;8.516;2023-04-03T06:54:34;2.70;99.90
42099;DHT22;27758;55.900;8.516;2023-04-03T06:57:01;2.80;99.90
42099;DHT22;27758;55.900;8.516;2023-04-03T06:59:27;2.90;99.90
42099;DHT22;27758;55.900;8.516;2023-04-03T07:01:53;3.10;99.90
42099;DHT22;27758;55.900;8.516;2023-04-03T07:04:19;3.30;99.90
42099;DHT22;27758;55.900;8.516;2023-04-03T07:06:48;3.40;99.90
42099;DHT22;27758;55.900;8.516;2023-04-03T07:09:14;3.60;99.90
42099;DHT22;27758;55.900;8.516;2023-04-03T07:11:40;3.70;99.90
42099;DHT22;27758;55.900;8.516;2023-04-03T07:14:06;3.80;99.90
42099;DHT22;27758;55.900;8.516;2023-04-03T07:16:34;4.00;99.90
42099;DHT22;27758;55.900;8.516;2023-04-03T07:19:00;4.30;99.90
42099;DHT22;27758;55.900;8.516;2023-04-03T07:21:27;4.50;99.90
42099;DHT22;27758;55.900;8.516;2023-04-03T07:23:53;4.60;99.90
42099;DHT22;27758;55.900;8.516;2023-04-03T07:26:19;4.80;99.90
42099;DHT22;27758;55.900;8.516;2023-04-03T07:28:46;4.90;99.90
42099;DHT22;27758;55.900;8.516;2023-04-03T07:31:14;5.10;99.90
42099;DHT22;27758;55.900;8.516;2023-04-03T07:33:41;5.40;99.90
42099;DHT22;27758;55.900;8.516;2023-04-03T07:36:07;5.80;99.90
42099;DHT22;27758;55.900;8.516;2023-04-03T07:38:35;6.10;99.90
42099;DHT22;27758;55.900;8.516;2023-04-03T07:41:02;6.40;99.90
42099;DHT22;27758;55.900;8.516;2023-04-03T07:43:28;6.70;99.90
42099;DHT22;27758;55.900;8.516;2023-04-03T07:45:53;6.80;99.90
42099;DHT22;27758;55.900;8.516;2023-04-03T07:48:24;6.60;99.90
42099;DHT22;27758;55.900;8.516;2023-04-03T07:50:51;6.80;99.90
42099;DHT22;27758;55.900;8.516;2023-04-03T07:53:18;6.90;99.90
42099;DHT22;27758;55.900;8.516;2023-04-03T07:55:46;7.10;99.90
42099;DHT22;27758;55.900;8.516;2023-04-03T07:58:16;7.50;99.90
42099;DHT22;27758;55.900;8.516;2023-04-03T08:00:42;7.60;99.90
42099;DHT22;27758;55.900;8.516;2023-04-03T08:03:10;7.50;99.90
42099;DHT22;27758;55.900;8.516;2023-04-03T08:05:44;7.70;99.90
42099;DHT22;27758;55.900;8.516;2023-04-03T08:08:11;8.30;99.90
42099;DHT22;27758;55.900;8.516;2023-04-03T08:10:37;8.30;99.90
42099;DHT22;27758;55.900;8.516;2023-04-03T08:13:03;8.30;99.90
42099;DHT22;27758;55.900;8.516;2023-04-03T08:15:30;8.50;99.90
42099;DHT22;27758;55.900;8.516;2023-04-03T08:17:57;8.50;99.90
42099;DHT22;27758;55.900;8.516;2023-04-03T08:20:23;8.70;99.90
42099;DHT22;27758;55.900;8.516;2023-04-03T08:22:49;8.80;99.90
42099;DHT22;27758;55.900;8.516;2023-04-03T08:25:15;8.90;99.90
42099;DHT22;27758;55.900;8.516;2023-04-03T08:27:40;8.60;99.90
42099;DHT22;27758;55.900;8.516;2023-04-03T08:30:07;8.20;99.90
42099;DHT22;27758;55.900;8.516;2023-04-03T08:32:34;8.10;99.90
42099;DHT22;27758;55.900;8.516;2023-04-03T08:35:01;8.40;99.90
42099;DHT22;27758;55.900;8.516;2023-04-03T08:37:27;8.50;99.90
42099;DHT22;27758;55.900;8.516;2023-04-03T08:39:53;8.90;99.90
42099;DHT22;27758;55.900;8.516;2023-04-03T08:45:46;8.90;99.70
42099;DHT22;27758;55.900;8.516;2023-04-03T08:48:27;9.00;99.90
42099;DHT22;27758;55.900;8.516;2023-04-03T08:50:58;9.10;99.30
42099;DHT22;27758;55.900;8.516;2023-04-03T08:53:30;9.20;95.70
42099;DHT22;27758;55.900;8.516;2023-04-03T08:55:58;9.30;94.70
42099;DHT22;27758;55.900;8.516;2023-04-03T08:58:30;9.30;95.20
42099;DHT22;27758;55.900;8.516;2023-04-03T09:01:21;9.50;94.50
42099;DHT22;27758;55.900;8.516;2023-04-03T09:03:48;9.40;94.90
42099;DHT22;27758;55.900;8.516;2023-04-03T09:09:00;9.40;92.00
42099;DHT22;27758;55.900;8.516;2023-04-03T09:11:33;9.40;93.00
42099;DHT22;27758;55.900;8.516;2023-04-03T09:14:11;9.50;93.00
42099;DHT22;27758;55.900;8.516;2023-04-03T09:21:57;9.90;92.40
42099;DHT22;27758;55.900;8.516;2023-04-03T09:24:23;9.90;91.40
42099;DHT22;27758;55.900;8.516;2023-04-03T09:29:22;9.80;89.80
42099;DHT22;27758;55.900;8.516;2023-04-03T09:31:50;9.70;90.70
42099;DHT22;27758;55.900;8.516;2023-04-03T09:34:38;9.70;90.80
42099;DHT22;27758;55.900;8.516;2023-04-03T09:37:07;10.30;90.80
42099;DHT22;27758;55.900;8.516;2023-04-03T09:39:52;10.50;90.20
42099;DHT22;27758;55.900;8.516;2023-04-03T09:42:19;10.00;90.60
42099;DHT22;27758;55.900;8.516;2023-04-03T09:44:54;9.90;90.60
42099;DHT22;27758;55.900;8.516;2023-04-03T09:47:32;10.10;91.70
42099;DHT22;27758;55.900;8.516;2023-04-03T09:52:48;10.40;93.40
42099;DHT22;27758;55.900;8.516;2023-04-03T09:55:22;10.60;91.30
42099;DHT22;27758;55.900;8.516;2023-04-03T09:57:53;10.30;91.10
42099;DHT22;27758;55.900;8.516;2023-04-03T10:02:54;10.40;91.60
42099;DHT22;27758;55.900;8.516;2023-04-03T10:05:42;10.20;91.80
42099;DHT22;27758;55.900;8.516;2023-04-03T10:10:47;10.40;91.60
42099;DHT22;27758;55.900;8.516;2023-04-03T10:15:45;10.90;93.70
42099;DHT22;27758;55.900;8.516;2023-04-03T10:18:42;11.00;91.60
42099;DHT22;27758;55.900;8.516;2023-04-03T10:21:43;11.00;91.90
42099;DHT22;27758;55.900;8.516;2023-04-03T10:24:15;11.30;91.60
42099;DHT22;27758;55.900;8.516;2023-04-03T10:40:57;11.10;89.90
42099;DHT22;27758;55.900;8.516;2023-04-03T10:43:44;11.20;89.20
42099;DHT22;27758;55.900;8.516;2023-04-03T10:46:40;11.10;91.70
42099;DHT22;27758;55.900;8.516;2023-04-03T10:51:43;11.70;90.50
42099;DHT22;27758;55.900;8.516;2023-04-03T10:54:39;11.80;90.90
42099;DHT22;27758;55.900;8.516;2023-04-03T10:57:09;12.50;91.90
42099;DHT22;27758;55.900;8.516;2023-04-03T11:04:37;12.30;90.50
42099;DHT22;27758;55.900;8.516;2023-04-03T11:07:18;12.00;88.70
42099;DHT22;27758;55.900;8.516;2023-04-03T11:09:49;11.80;89.60
42099;DHT22;27758;55.900;8.516;2023-04-03T11:12:38;12.00;87.90
42099;DHT22;27758;55.900;8.516;2023-04-03T11:15:17;11.90;89.10
42099;DHT22;27758;55.900;8.516;2023-04-03T11:17:50;12.00;90.80
42099;DHT22;27758;55.900;8.516;2023-04-03T11:20:21;12.40;89.40
42099;DHT22;27758;55.900;8.516;2023-04-03T11:26:15;11.80;89.60
42099;DHT22;27758;55.900;8.516;2023-04-03T11:28:41;11.90;87.90
42099;DHT22;27758;55.900;8.516;2023-04-03T11:36:48;11.90;89.70
42099;DHT22;27758;55.900;8.516;2023-04-03T11:39:35;12.10;90.30
42099;DHT22;27758;55.900;8.516;2023-04-03T11:47:50;12.30;90.20
42099;DHT22;27758;55.900;8.516;2023-04-03T12:08:25;13.10;92.40
42099;DHT22;27758;55.900;8.516;2023-04-03T12:35:43;12.90;90.10
42099;DHT22;27758;55.900;8.516;2023-04-03T12:38:21;12.30;90.10
42099;DHT22;27758;55.900;8.516;2023-04-03T12:46:21;12.30;88.40
42099;DHT22;27758;55.900;8.516;2023-04-03T12:48:55;12.30;89.90
42099;DHT22;27758;55.900;8.516;2023-04-03T12:51:28;12.50;87.90
42099;DHT22;27758;55.900;8.516;2023-04-03T12:54:04;12.20;87.40
42099;DHT22;27758;55.900;8.516;2023-04-03T12:56:38;12.30;88.60
42099;DHT22;27758;55.900;8.516;2023-04-03T12:59:23;12.30;90.50
42099;DHT22;27758;55.900;8.516;2023-04-03T13:01:57;12.30;88.30
42099;DHT22;27758;55.900;8.516;2023-04-03T13:04:23;12.30;87.60
42099;DHT22;27758;55.900;8.516;2023-04-03T13:06:50;12.50;89.30
42099;DHT22;27758;55.900;8.516;2023-04-03T13:09:23;12.40;88.20
42099;DHT22;27758;55.900;8.516;2023-04-03T13:12:07;12.40;90.30
42099;DHT22;27758;55.900;8.516;2023-04-03T13:14:35;12.20;90.70
42099;DHT22;27758;55.900;8.516;2023-04-03T13:17:15;12.70;90.60
42099;DHT22;27758;55.900;8.516;2023-04-03T13:19:43;13.30;90.30
42099;DHT22;27758;55.900;8.516;2023-04-03T13:22:26;13.60;86.30
42099;DHT22;27758;55.900;8.516;2023-04-03T13:24:54;12.80;88.10
42099;DHT22;27758;55.900;8.516;2023-04-03T13:27:20;12.40;87.30
42099;DHT22;27758;55.900;8.516;2023-04-03T13:29:51;12.20;87.20
42099;DHT22;27758;55.900;8.516;2023-04-03T13:32:21;12.20;88.90
42099;DHT22;27758;55.900;8.516;2023-04-03T13:34:48;12.40;88.40
42099;DHT22;27758;55.900;8.516;2023-04-03T13:37:28;12.00;89.90
42099;DHT22;27758;55.900;8.516;2023-04-03T13:42:35;11.80;89.90
42099;DHT22;27758;55.900;8.516;2023-04-03T13:47:45;11.90;90.60
42099;DHT22;27758;55.900;8.516;2023-04-03T13:52:53;11.90;91.10
42099;DHT22;27758;55.900;8.516;2023-04-03T13:57:59;12.10;90.50
42099;DHT22;27758;55.900;8.516;2023-04-03T14:00:39;12.00;90.00
42099;DHT22;27758;55.900;8.516;2023-04-03T14:03:19;11.90;90.30
42099;DHT22;27758;55.900;8.516;2023-04-03T14:05:45;11.90;90.40
42099;DHT22;27758;55.900;8.516;2023-04-03T14:08:11;11.70;90.20
42099;DHT22;27758;55.900;8.516;2023-04-03T14:10:37;11.50;89.70
42099;DHT22;27758;55.900;8.516;2023-04-03T14:13:04;11.30;90.90
42099;DHT22;27758;55.900;8.516;2023-04-03T14:15:31;11.40;90.90
42099;DHT22;27758;55.900;8.516;2023-04-03T14:17:57;11.30;90.90
42099;DHT22;27758;55.900;8.516;2023-04-03T14:20:25;11.50;90.50
42099;DHT22;27758;55.900;8.516;2023-04-03T14:22:52;11.50;90.90
42099;DHT22;27758;55.900;8.516;2023-04-03T14:25:20;11.50;91.00
42099;DHT22;27758;55.900;8.516;2023-04-03T14:27:48;11.50;90.20
42099;DHT22;27758;55.900;8.516;2023-04-03T14:30:24;11.40;90.60
42099;DHT22;27758;55.900;8.516;2023-04-03T14:32:50;11.60;90.70
42099;DHT22;27758;55.900;8.516;2023-04-03T14:35:17;11.70;89.80
42099;DHT22;27758;55.900;8.516;2023-04-03T14:37:44;11.60;90.00
42099;DHT22;27758;55.900;8.516;2023-04-03T14:40:17;11.70;90.70
42099;DHT22;27758;55.900;8.516;2023-04-03T14:42:43;11.50;90.20
42099;DHT22;27758;55.900;8.516;2023-04-03T14:45:11;11.10;89.90
42099;DHT22;27758;55.900;8.516;2023-04-03T14:47:51;10.90;90.40
42099;DHT22;27758;55.900;8.516;2023-04-03T14:50:23;10.90;90.40
42099;DHT22;27758;55.900;8.516;2023-04-03T14:52:51;10.80;90.70
42099;DHT22;27758;55.900;8.516;2023-04-03T14:55:19;10.70;91.70
42099;DHT22;27758;55.900;8.516;2023-04-03T14:57:46;11.10;91.30
42099;DHT22;27758;55.900;8.516;2023-04-03T15:00:20;11.30;90.20
42099;DHT22;27758;55.900;8.516;2023-04-03T15:02:47;11.50;92.00
42099;DHT22;27758;55.900;8.516;2023-04-03T15:05:14;11.70;92.50
42099;DHT22;27758;55.900;8.516;2023-04-03T15:07:42;11.90;89.60
42099;DHT22;27758;55.900;8.516;2023-04-03T15:10:21;11.90;88.70
42099;DHT22;27758;55.900;8.516;2023-04-03T15:12:49;11.70;90.20
42099;DHT22;27758;55.900;8.516;2023-04-03T15:15:16;11.50;90.20
42099;DHT22;27758;55.900;8.516;2023-04-03T15:17:42;11.40;90.80
42099;DHT22;27758;55.900;8.516;2023-04-03T15:20:22;11.40;91.80
42099;DHT22;27758;55.900;8.516;2023-04-03T15:22:48;11.30;90.90
42099;DHT22;27758;55.900;8.516;2023-04-03T15:25:14;11.30;90.90
42099;DHT22;27758;55.900;8.516;2023-04-03T15:27:40;11.40;90.20
42099;DHT22;27758;55.900;8.516;2023-04-03T15:30:08;11.50;90.40
42099;DHT22;27758;55.900;8.516;2023-04-03T15:32:34;11.60;90.30
42099;DHT22;27758;55.900;8.516;2023-04-03T15:35:00;11.60;92.40
42099;DHT22;27758;55.900;8.516;2023-04-03T15:37:26;11.60;90.60
42099;DHT22;27758;55.900;8.516;2023-04-03T15:39:52;11.40;90.10
42099;DHT22;27758;55.900;8.516;2023-04-03T15:42:18;11.20;91.20
42099;DHT22;27758;55.900;8.516;2023-04-03T15:44:43;11.20;90.70
42099;DHT22;27758;55.900;8.516;2023-04-03T15:47:09;10.80;91.40
42099;DHT22;27758;55.900;8.516;2023-04-03T15:49:35;10.80;91.50
42099;DHT22;27758;55.900;8.516;2023-04-03T15:52:02;11.00;91.60
42099;DHT22;27758;55.900;8.516;2023-04-03T15:54:28;11.10;91.30
42099;DHT22;27758;55.900;8.516;2023-04-03T15:56:55;11.20;91.40
42099;DHT22;27758;55.900;8.516;2023-04-03T15:59:21;11.00;91.70
42099;DHT22;27758;55.900;8.516;2023-04-03T16:01:47;11.00;91.30
42099;DHT22;27758;55.900;8.516;2023-04-03T16:04:13;10.70;91.70
42099;DHT22;27758;55.900;8.516;2023-04-03T16:06:40;10.40;91.70
42099;DHT22;27758;55.900;8.516;2023-04-03T16:09:06;10.10;92.50
42099;DHT22;27758;55.900;8.516;2023-04-03T16:11:33;10.00;92.30
42099;DHT22;27758;55.900;8.516;2023-04-03T16:14:00;9.80;92.50
42099;DHT22;27758;55.900;8.516;2023-04-03T16:16:26;9.50;92.50
42099;DHT22;27758;55.900;8.516;2023-04-03T16:18:54;9.50;92.50
42099;DHT22;27758;55.900;8.516;2023-04-03T16:21:21;9.40;92.80
42099;DHT22;27758;55.900;8.516;2023-04-03T16:23:49;9.40;92.20
42099;DHT22;27758;55.900;8.516;2023-04-03T16:26:14;9.40;92.50
42099;DHT22;27758;55.900;8.516;2023-04-03T16:28:40;9.30;93.40
42099;DHT22;27758;55.900;8.516;2023-04-03T16:31:07;9.20;94.00
42099;DHT22;27758;55.900;8.516;2023-04-03T16:33:33;9.30;93.10
42099;DHT22;27758;55.900;8.516;2023-04-03T16:35:59;9.50;92.80
42099;DHT22;27758;55.900;8.516;2023-04-03T16:38:25;9.60;92.50
42099;DHT22;27758;55.900;8.516;2023-04-03T16:40:50;9.50;92.50
42099;DHT22;27758;55.900;8.516;2023-04-03T16:43:18;9.50;92.60
42099;DHT22;27758;55.900;8.516;2023-04-03T16:45:43;9.40;92.60
42099;DHT22;27758;55.900;8.516;2023-04-03T16:48:09;9.30;93.30
42099;DHT22;27758;55.900;8.516;2023-04-03T16:50:35;9.30;93.40
42099;DHT22;27758;55.900;8.516;2023-04-03T16:53:01;9.30;95.40
42099;DHT22;27758;55.900;8.516;2023-04-03T16:55:28;9.30;96.80
42099;DHT22;27758;55.900;8.516;2023-04-03T16:57:54;9.30;97.50
42099;DHT22;27758;55.900;8.516;2023-04-03T17:00:20;9.20;98.80
42099;DHT22;27758;55.900;8.516;2023-04-03T17:02:46;9.20;98.90
42099;DHT22;27758;55.900;8.516;2023-04-03T17:05:12;9.10;99.10
42099;DHT22;27758;55.900;8.516;2023-04-03T17:07:38;9.10;99.20
42099;DHT22;27758;55.900;8.516;2023-04-03T17:10:04;9.10;99.20
42099;DHT22;27758;55.900;8.516;2023-04-03T17:12:29;8.90;99.40
42099;DHT22;27758;55.900;8.516;2023-04-03T17:14:55;8.90;99.10
42099;DHT22;27758;55.900;8.516;2023-04-03T17:17:24;8.80;99.80
42099;DHT22;27758;55.900;8.516;2023-04-03T17:19:50;8.70;99.60
42099;DHT22;27758;55.900;8.516;2023-04-03T17:22:16;8.60;99.80
42099;DHT22;27758;55.900;8.516;2023-04-03T17:24:43;8.60;99.70
42099;DHT22;27758;55.900;8.516;2023-04-03T17:27:09;8.60;99.20
42099;DHT22;27758;55.900;8.516;2023-04-03T17:29:35;8.50;98.60
42099;DHT22;27758;55.900;8.516;2023-04-03T17:32:00;8.40;98.60
42099;DHT22;27758;55.900;8.516;2023-04-03T17:34:26;8.30;99.50
42099;DHT22;27758;55.900;8.516;2023-04-03T17:36:52;8.10;99.90
42099;DHT22;27758;55.900;8.516;2023-04-03T17:39:18;8.00;99.90
42099;DHT22;27758;55.900;8.516;2023-04-03T17:41:44;8.00;99.90
42099;DHT22;27758;55.900;8.516;2023-04-03T17:44:14;7.90;99.90
42099;DHT22;27758;55.900;8.516;2023-04-03T17:46:40;7.80;99.90
42099;DHT22;27758;55.900;8.516;2023-04-03T17:49:05;7.70;99.90
42099;DHT22;27758;55.900;8.516;2023-04-03T17:51:31;7.70;99.90